Tehachapi, CA

3:50 PM PDT on April 29, 2017 (GMT -0700)
Tehachapi Municipal

Weather History for KTSP - February, 2014

Change the Weather History Date:

Thursday, February 20, 2014

  Actual Average Record
Temperature  
Mean Temperature 46 °F -  
Max Temperature 60 °F 55 °F 62 °F (2015)
Min Temperature 32 °F 32 °F 24 °F (2013)
Degree Days  
Heating Degree Days 19    
Moisture  
Dew Point 30 °F    
Average Humidity 64    
Maximum Humidity 100    
Minimum Humidity 19    
Precipitation  
Precipitation 0.00 in - - ()
Sea Level Pressure  
Sea Level Pressure 30.16 in    
Wind  
Wind Speed 8 mph (ESE)    
Max Wind Speed 17 mph    
Max Gust Speed 22 mph    
Visibility 8 miles    
Events Fog    
Averages and records for this station are not official NWS values.
T = Trace of Precipitation, MM = Missing Value Source: NWS Daily Summary

Daily Weather History Graph

Daily Weather History Graph

Search for Another Location

Airport or City:

Trip Planner

Search our weather history database for the weather conditions in past years. The results will help you decide how hot, cold, wet, or windy it might be!

Date:

Astronomy

Feb. 20, 2014 Rise Set
Actual Time 6:34 AM PST 5:41 PM PST
Civil Twilight 6:08 AM PST 6:06 PM PST
Nautical Twilight 5:38 AM PST 6:36 PM PST
Astronomical Twilight 5:09 AM PST 7:05 PM PST
Moon 11:25 PM PST (2/20) 9:33 AM PST (2/20)
Length of Visible Light 11h 58m
Length of Day
11h 07m
Waning Gibbous, 70% of the Moon is Illuminated
Feb 20
Waning Gibbous
Feb 22
Last Quarter
Mar 1
New
Mar 8
First Quarter
Mar 16
Full

Hourly Weather History & Observations

Time (PST) Temp. Windchill Dew Point Humidity Pressure Visibility Wind Dir Wind Speed Gust Speed Precip Events Conditions
12:15 AM 44.6 °F 39.2 °F 42.8 °F 93% 30.15 in 7.0 mi WNW 10.4 mph - N/A   Overcast
12:35 AM 42.8 °F 36.6 °F 42.8 °F 100% 30.16 in 7.0 mi WNW 11.5 mph - N/A   Mostly Cloudy
12:55 AM 42.8 °F 36.2 °F 42.8 °F 100% 30.16 in 5.0 mi WNW 12.7 mph - N/A   Overcast
1:15 AM 42.8 °F 37.5 °F 42.8 °F 100% 30.17 in 5.0 mi WNW 9.2 mph - N/A   Overcast
1:35 AM 42.8 °F 36.6 °F 42.8 °F 100% 30.17 in 5.0 mi WNW 11.5 mph - N/A   Overcast
1:55 AM 41.0 °F 34.7 °F 41.0 °F 100% 30.17 in 3.0 mi NW 10.4 mph - N/A   Mostly Cloudy
2:15 AM 41.0 °F 34.3 °F 41.0 °F 100% 30.17 in 2.5 mi NW 11.5 mph - N/A   Overcast
2:35 AM 41.0 °F 35.2 °F 41.0 °F 100% 30.17 in 2.0 mi NW 9.2 mph - N/A   Overcast
2:55 AM 41.0 °F 34.7 °F 41.0 °F 100% 30.16 in 1.2 mi NW 10.4 mph - N/A   Mostly Cloudy
3:15 AM 41.0 °F 35.2 °F 41.0 °F 100% 30.17 in 0.5 mi WNW 9.2 mph - N/A Fog Fog
3:35 AM 41.0 °F 35.8 °F 41.0 °F 100% 30.17 in 3.0 mi WNW 8.1 mph - N/A   Mostly Cloudy
3:55 AM 41.0 °F 37.1 °F 41.0 °F 100% 30.17 in 5.0 mi WNW 5.8 mph - N/A   Overcast
4:15 AM 41.0 °F 38.0 °F 41.0 °F 100% 30.16 in 5.0 mi WNW 4.6 mph - N/A   Mostly Cloudy
4:35 AM 39.2 °F - 39.2 °F 100% 30.16 in 3.0 mi Calm Calm - N/A   Overcast
4:55 AM 39.2 °F - 39.2 °F 100% 30.17 in 5.0 mi Calm Calm - N/A   Overcast
5:15 AM 37.4 °F - 37.4 °F 100% 30.16 in 6.0 mi Calm Calm - N/A   Overcast
5:35 AM 35.6 °F - 35.6 °F 100% 30.16 in 5.0 mi Calm Calm - N/A   Mostly Cloudy
5:55 AM 32.0 °F 28.7 °F 32.0 °F 100% 30.16 in 5.0 mi ESE 3.5 mph - N/A   Partly Cloudy
6:15 AM 32.0 °F - 32.0 °F 100% 30.16 in 5.0 mi Calm Calm - N/A   Clear
6:35 AM 32.0 °F - 32.0 °F 100% 30.16 in 4.0 mi Calm Calm - N/A   Clear
6:55 AM 32.0 °F 26.4 °F 32.0 °F 100% 30.16 in 3.0 mi ESE 5.8 mph - N/A   Clear
7:15 AM 32.0 °F - 32.0 °F 100% 30.17 in 3.0 mi Calm Calm - N/A   Clear
7:35 AM 35.6 °F 32.8 °F 35.6 °F 100% 30.17 in 3.0 mi SE 3.5 mph - N/A   Clear
7:55 AM 37.4 °F - 37.4 °F 100% 30.18 in 4.0 mi Calm Calm - N/A   Clear
8:15 AM 41.0 °F 39.0 °F 37.4 °F 87% 30.19 in 7.0 mi ESE 3.5 mph - N/A   Clear
8:35 AM 44.6 °F 43.1 °F 39.2 °F 81% 30.19 in 7.0 mi NE 3.5 mph - N/A   Clear
8:55 AM 48.2 °F - 35.6 °F 62% 30.20 in 9.0 mi ESE 8.1 mph - N/A   Clear
9:15 AM 51.8 °F - 28.4 °F 41% 30.20 in 10.0 mi East 8.1 mph - N/A   Clear
9:35 AM 55.4 °F - 23.0 °F 29% 30.20 in 8.0 mi ESE 11.5 mph - N/A   Clear
9:55 AM 55.4 °F - 19.4 °F 25% 30.20 in 9.0 mi SE 15.0 mph 19.6 mph N/A   Clear
10:15 AM 57.2 °F - 17.6 °F 21% 30.20 in 9.0 mi ESE 15.0 mph - N/A   Clear
10:35 AM 57.2 °F - 17.6 °F 21% 30.20 in 10.0 mi SE 13.8 mph - N/A   Clear
10:55 AM 57.2 °F - 17.6 °F 21% 30.20 in 10.0 mi ESE 17.3 mph 21.9 mph N/A   Clear
11:15 AM 57.2 °F - 17.6 °F 21% 30.19 in 10.0 mi ESE 16.1 mph 21.9 mph N/A   Clear
11:35 AM 59.0 °F - 17.6 °F 20% 30.19 in 10.0 mi ESE 16.1 mph 19.6 mph N/A   Clear
11:55 AM 57.2 °F - 17.6 °F 21% 30.18 in 10.0 mi ESE 17.3 mph 20.7 mph N/A   Clear
12:15 PM 57.2 °F - 19.4 °F 23% 30.18 in 10.0 mi ESE 15.0 mph 19.6 mph N/A   Clear
12:35 PM 57.2 °F - 19.4 °F 23% 30.17 in 10.0 mi ESE 13.8 mph 18.4 mph N/A   Clear
12:55 PM 59.0 °F - 19.4 °F 22% 30.16 in 10.0 mi ESE 12.7 mph 20.7 mph N/A   Clear
1:15 PM 59.0 °F - 19.4 °F 22% 30.15 in 10.0 mi ESE 12.7 mph 16.1 mph N/A   Clear
1:35 PM 59.0 °F - 17.6 °F 20% 30.15 in 10.0 mi ESE 9.2 mph - N/A   Clear
1:55 PM 59.0 °F - 17.6 °F 20% 30.14 in 10.0 mi East 10.4 mph 16.1 mph N/A   Clear
2:15 PM 59.0 °F - 17.6 °F 20% 30.14 in 10.0 mi East 10.4 mph - N/A   Clear
2:35 PM 59.0 °F - 17.6 °F 20% 30.13 in 9.0 mi ESE 12.7 mph - N/A   Clear
2:55 PM 59.0 °F - 17.6 °F 20% 30.13 in 10.0 mi East 8.1 mph - N/A   Clear
3:15 PM 59.0 °F - 17.6 °F 20% 30.13 in 10.0 mi ESE 8.1 mph - N/A   Clear
3:35 PM 59.0 °F - 17.6 °F 20% 30.13 in 10.0 mi SE 4.6 mph - N/A   Clear
3:55 PM 60.8 °F - 17.6 °F 19% 30.13 in 10.0 mi SSE 3.5 mph - N/A   Clear
4:15 PM 57.2 °F - 28.4 °F 33% 30.13 in 10.0 mi NW 6.9 mph - N/A   Clear
4:35 PM 55.4 °F - 28.4 °F 36% 30.12 in 10.0 mi NW 4.6 mph - N/A   Clear
4:55 PM 55.4 °F - 28.4 °F 36% 30.11 in 10.0 mi WSW 3.5 mph - N/A   Clear
5:15 PM 53.6 °F - 28.4 °F 38% 30.12 in 9.0 mi NNW 5.8 mph - N/A   Clear
5:35 PM 48.2 °F - 32.0 °F 54% 30.13 in 9.0 mi NW 10.4 mph 16.1 mph N/A   Clear
5:55 PM 46.4 °F 41.5 °F 32.0 °F 57% 30.14 in 9.0 mi NW 10.4 mph 17.3 mph N/A   Clear
6:15 PM 44.6 °F 42.2 °F 32.0 °F 61% 30.14 in 10.0 mi West 4.6 mph - N/A   Clear
6:35 PM 44.6 °F 43.1 °F 32.0 °F 61% 30.14 in 10.0 mi West 3.5 mph - N/A   Clear
6:55 PM 42.8 °F - 32.0 °F 66% 30.14 in 10.0 mi Calm Calm - N/A   Clear
7:15 PM 41.0 °F 39.0 °F 32.0 °F 70% 30.14 in 10.0 mi NW 3.5 mph - N/A   Clear
7:35 PM 41.0 °F 39.0 °F 32.0 °F 70% 30.15 in 10.0 mi WSW 3.5 mph - N/A   Clear
7:55 PM 39.2 °F 37.0 °F 32.0 °F 75% 30.15 in 10.0 mi SW 3.5 mph - N/A   Clear
8:15 PM 39.2 °F 35.0 °F 30.2 °F 70% 30.15 in 9.0 mi East 5.8 mph - N/A   Clear
8:35 PM 37.4 °F 33.8 °F 28.4 °F 70% 30.14 in 9.0 mi SE 4.6 mph - N/A   Clear
8:55 PM 37.4 °F 32.8 °F 28.4 °F 70% 30.14 in 10.0 mi SE 5.8 mph - N/A   Clear
9:15 PM 37.4 °F - 28.4 °F 70% 30.14 in 10.0 mi Calm Calm - N/A   Clear
9:35 PM 35.6 °F 32.8 °F 28.4 °F 75% 30.14 in 9.0 mi NE 3.5 mph - N/A   Clear
9:55 PM 37.4 °F - 26.6 °F 65% 30.14 in 10.0 mi Calm Calm - N/A   Clear
10:15 PM 35.6 °F - 26.6 °F 70% 30.14 in 10.0 mi Calm Calm - N/A   Clear
10:35 PM 35.6 °F - 26.6 °F 70% 30.14 in 10.0 mi Calm Calm - N/A   Clear
10:55 PM 35.6 °F 32.8 °F 26.6 °F 70% 30.13 in 10.0 mi SW 3.5 mph - N/A   Clear
11:15 PM 35.6 °F - 26.6 °F 70% 30.13 in 10.0 mi Calm Calm - N/A   Clear
11:35 PM 32.0 °F 27.5 °F 24.8 °F 75% 30.13 in 9.0 mi SE 4.6 mph - N/A   Clear
11:55 PM 32.0 °F - 24.8 °F 75% 30.12 in 9.0 mi Calm Calm - N/A   Clear